sensor_id;sensor_type;location;lat;lon;timestamp;pressure;altitude;pressure_sealevel;temperature;humidity
50087;BME280;35967;50.718;7.050;2023-09-19T00:01:23;100143.03;;;16.95;88.17
50087;BME280;35967;50.718;7.050;2023-09-19T00:11:26;100150.56;;;16.83;88.51
50087;BME280;35967;50.718;7.050;2023-09-19T00:21:32;100159.47;;;16.79;88.68
50087;BME280;35967;50.718;7.050;2023-09-19T00:31:35;100150.00;;;16.78;88.06
50087;BME280;35967;50.718;7.050;2023-09-19T00:41:41;100145.88;;;16.90;87.05
50087;BME280;35967;50.718;7.050;2023-09-19T00:51:46;100157.72;;;16.96;86.76
50087;BME280;35967;50.718;7.050;2023-09-19T01:01:51;100167.34;;;16.94;86.69
50087;BME280;35967;50.718;7.050;2023-09-19T01:11:58;100170.31;;;16.55;88.56
50087;BME280;35967;50.718;7.050;2023-09-19T01:22:08;100175.75;;;16.67;89.20
50087;BME280;35967;50.718;7.050;2023-09-19T01:32:18;100188.31;;;16.75;88.09
50087;BME280;35967;50.718;7.050;2023-09-19T01:42:34;100204.00;;;16.73;87.16
50087;BME280;35967;50.718;7.050;2023-09-19T01:52:47;100210.53;;;16.64;87.11
50087;BME280;35967;50.718;7.050;2023-09-19T02:02:51;100217.75;;;16.59;84.92
50087;BME280;35967;50.718;7.050;2023-09-19T02:12:57;100227.72;;;16.51;83.58
50087;BME280;35967;50.718;7.050;2023-09-19T02:23:01;100242.97;;;16.41;83.17
50087;BME280;35967;50.718;7.050;2023-09-19T02:33:06;100251.41;;;16.29;83.21
50087;BME280;35967;50.718;7.050;2023-09-19T02:43:10;100255.78;;;16.28;84.01
50087;BME280;35967;50.718;7.050;2023-09-19T02:53:14;100255.09;;;16.24;84.66
50087;BME280;35967;50.718;7.050;2023-09-19T03:03:18;100263.00;;;16.05;85.55
50087;BME280;35967;50.718;7.050;2023-09-19T03:13:23;100263.59;;;16.11;85.32
50087;BME280;35967;50.718;7.050;2023-09-19T03:23:26;100286.03;;;16.29;84.32
50087;BME280;35967;50.718;7.050;2023-09-19T03:33:32;100297.81;;;16.01;84.39
50087;BME280;35967;50.718;7.050;2023-09-19T03:43:36;100301.19;;;16.03;84.95
50087;BME280;35967;50.718;7.050;2023-09-19T03:53:41;100289.09;;;16.20;85.04
50087;BME280;35967;50.718;7.050;2023-09-19T04:03:45;100291.16;;;15.96;86.15
50087;BME280;35967;50.718;7.050;2023-09-19T04:13:54;100294.22;;;15.69;87.75
50087;BME280;35967;50.718;7.050;2023-09-19T04:23:57;100307.53;;;15.43;88.85
50087;BME280;35967;50.718;7.050;2023-09-19T04:34:02;100303.38;;;15.22;88.41
50087;BME280;35967;50.718;7.050;2023-09-19T04:44:06;100300.50;;;15.09;88.17
50087;BME280;35967;50.718;7.050;2023-09-19T04:54:11;100308.94;;;15.14;88.54
50087;BME280;35967;50.718;7.050;2023-09-19T05:04:15;100304.81;;;14.91;88.26
50087;BME280;35967;50.718;7.050;2023-09-19T05:14:19;100308.94;;;14.95;87.13
50087;BME280;35967;50.718;7.050;2023-09-19T05:24:23;100332.25;;;14.95;86.71
50087;BME280;35967;50.718;7.050;2023-09-19T05:34:29;100354.66;;;14.77;86.81
50087;BME280;35967;50.718;7.050;2023-09-19T05:44:33;100363.09;;;14.82;86.63
50087;BME280;35967;50.718;7.050;2023-09-19T05:54:37;100372.75;;;14.97;85.82
50087;BME280;35967;50.718;7.050;2023-09-19T06:04:41;100385.22;;;15.08;86.46
50087;BME280;35967;50.718;7.050;2023-09-19T06:14:45;100399.22;;;15.23;85.83
50087;BME280;35967;50.718;7.050;2023-09-19T06:24:49;100415.63;;;15.43;85.34
50087;BME280;35967;50.718;7.050;2023-09-19T06:34:54;100432.72;;;15.28;83.32
50087;BME280;35967;50.718;7.050;2023-09-19T06:44:57;100436.47;;;15.41;82.29
50087;BME280;35967;50.718;7.050;2023-09-19T06:55:01;100448.78;;;15.55;81.51
50087;BME280;35967;50.718;7.050;2023-09-19T07:05:06;100443.72;;;15.71;80.63
50087;BME280;35967;50.718;7.050;2023-09-19T07:15:11;100438.34;;;16.13;77.92
50087;BME280;35967;50.718;7.050;2023-09-19T07:25:14;100442.69;;;16.12;78.74
50087;BME280;35967;50.718;7.050;2023-09-19T07:35:19;100437.81;;;16.41;78.16
50087;BME280;35967;50.718;7.050;2023-09-19T07:45:22;100451.03;;;16.54;76.25
50087;BME280;35967;50.718;7.050;2023-09-19T07:55:28;100463.38;;;16.84;75.33
50087;BME280;35967;50.718;7.050;2023-09-19T08:05:31;100450.81;;;17.10;72.48
50087;BME280;35967;50.718;7.050;2023-09-19T08:15:43;100449.91;;;17.43;73.18
50087;BME280;35967;50.718;7.050;2023-09-19T08:25:47;100463.75;;;17.59;71.67
50087;BME280;35967;50.718;7.050;2023-09-19T08:35:51;100458.28;;;17.64;70.57
50087;BME280;35967;50.718;7.050;2023-09-19T08:45:59;100458.56;;;17.75;69.46
50087;BME280;35967;50.718;7.050;2023-09-19T08:56:08;100462.81;;;17.92;66.69
50087;BME280;35967;50.718;7.050;2023-09-19T09:06:14;100452.34;;;18.24;64.72
50087;BME280;35967;50.718;7.050;2023-09-19T09:16:23;100457.28;;;18.59;64.77
50087;BME280;35967;50.718;7.050;2023-09-19T09:26:41;100465.59;;;18.81;61.78
50087;BME280;35967;50.718;7.050;2023-09-19T09:36:48;100461.59;;;18.75;62.35
50087;BME280;35967;50.718;7.050;2023-09-19T09:46:51;100450.22;;;18.90;59.83
50087;BME280;35967;50.718;7.050;2023-09-19T09:57:18;100451.50;;;19.55;57.40
50087;BME280;35967;50.718;7.050;2023-09-19T10:07:26;100452.94;;;19.74;57.50
50087;BME280;35967;50.718;7.050;2023-09-19T10:17:36;100436.94;;;19.66;55.79
50087;BME280;35967;50.718;7.050;2023-09-19T10:27:40;100428.19;;;19.80;56.33
50087;BME280;35967;50.718;7.050;2023-09-19T10:37:47;100425.56;;;20.07;54.27
50087;BME280;35967;50.718;7.050;2023-09-19T10:47:53;100406.88;;;21.41;50.41
50087;BME280;35967;50.718;7.050;2023-09-19T10:58:00;100410.44;;;21.40;48.83
50087;BME280;35967;50.718;7.050;2023-09-19T11:08:06;100422.25;;;22.77;46.34
50087;BME280;35967;50.718;7.050;2023-09-19T11:39:26;100408.75;;;22.12;45.13
50087;BME280;35967;50.718;7.050;2023-09-19T11:49:32;100421.88;;;22.12;44.86
50087;BME280;35967;50.718;7.050;2023-09-19T11:59:38;100431.53;;;22.47;44.00
50087;BME280;35967;50.718;7.050;2023-09-19T12:09:44;100418.91;;;22.63;43.43
50087;BME280;35967;50.718;7.050;2023-09-19T12:19:50;100411.50;;;22.57;43.94
50087;BME280;35967;50.718;7.050;2023-09-19T12:29:56;100417.13;;;22.64;44.48
50087;BME280;35967;50.718;7.050;2023-09-19T12:40:09;100411.88;;;22.75;42.83
50087;BME280;35967;50.718;7.050;2023-09-19T12:50:21;100403.75;;;22.56;43.84
50087;BME280;35967;50.718;7.050;2023-09-19T13:00:33;100391.69;;;22.64;44.85
50087;BME280;35967;50.718;7.050;2023-09-19T13:11:03;100388.47;;;22.61;44.35
50087;BME280;35967;50.718;7.050;2023-09-19T13:21:09;100376.63;;;22.32;45.17
50087;BME280;35967;50.718;7.050;2023-09-19T13:31:16;100367.28;;;22.05;45.35
50087;BME280;35967;50.718;7.050;2023-09-19T13:41:20;100354.41;;;22.02;47.11
50087;BME280;35967;50.718;7.050;2023-09-19T13:51:25;100344.34;;;21.85;46.24
50087;BME280;35967;50.718;7.050;2023-09-19T14:01:28;100344.63;;;21.57;46.48
50087;BME280;35967;50.718;7.050;2023-09-19T14:11:32;100346.00;;;21.74;46.66
50087;BME280;35967;50.718;7.050;2023-09-19T14:21:35;100354.75;;;21.62;46.45
50087;BME280;35967;50.718;7.050;2023-09-19T14:31:42;100359.94;;;21.51;47.06
50087;BME280;35967;50.718;7.050;2023-09-19T14:41:46;100350.75;;;21.45;47.31
50087;BME280;35967;50.718;7.050;2023-09-19T14:51:51;100362.34;;;21.30;46.84
50087;BME280;35967;50.718;7.050;2023-09-19T15:01:53;100352.63;;;21.19;46.72
50087;BME280;35967;50.718;7.050;2023-09-19T15:11:58;100346.44;;;21.20;48.04
50087;BME280;35967;50.718;7.050;2023-09-19T15:22:01;100345.41;;;21.22;47.82
50087;BME280;35967;50.718;7.050;2023-09-19T15:32:05;100340.47;;;20.80;48.76
50087;BME280;35967;50.718;7.050;2023-09-19T15:42:08;100350.28;;;20.90;49.00
50087;BME280;35967;50.718;7.050;2023-09-19T15:52:16;100344.84;;;20.93;49.89
50087;BME280;35967;50.718;7.050;2023-09-19T16:02:19;100340.88;;;20.87;50.36
50087;BME280;35967;50.718;7.050;2023-09-19T16:12:24;100347.00;;;20.75;51.53
50087;BME280;35967;50.718;7.050;2023-09-19T16:22:27;100342.47;;;20.64;51.61
50087;BME280;35967;50.718;7.050;2023-09-19T16:32:32;100346.78;;;20.39;52.23
50087;BME280;35967;50.718;7.050;2023-09-19T16:42:35;100347.31;;;20.18;53.80
50087;BME280;35967;50.718;7.050;2023-09-19T16:52:42;100356.69;;;19.95;54.52
50087;BME280;35967;50.718;7.050;2023-09-19T17:02:46;100357.38;;;19.84;54.90
50087;BME280;35967;50.718;7.050;2023-09-19T17:12:55;100360.91;;;19.70;56.07
50087;BME280;35967;50.718;7.050;2023-09-19T17:22:58;100358.31;;;19.56;56.57
50087;BME280;35967;50.718;7.050;2023-09-19T17:33:03;100360.81;;;19.45;57.46
50087;BME280;35967;50.718;7.050;2023-09-19T17:43:07;100357.63;;;19.54;57.22
50087;BME280;35967;50.718;7.050;2023-09-19T17:53:11;100359.75;;;19.20;58.28
50087;BME280;35967;50.718;7.050;2023-09-19T18:03:15;100373.41;;;18.96;58.42
50087;BME280;35967;50.718;7.050;2023-09-19T18:13:20;100376.13;;;18.95;58.91
50087;BME280;35967;50.718;7.050;2023-09-19T18:23:24;100370.31;;;18.89;58.68
50087;BME280;35967;50.718;7.050;2023-09-19T18:33:28;100379.34;;;18.84;58.96
50087;BME280;35967;50.718;7.050;2023-09-19T18:43:31;100385.88;;;18.76;60.55
50087;BME280;35967;50.718;7.050;2023-09-19T18:53:38;100397.44;;;18.58;60.34
50087;BME280;35967;50.718;7.050;2023-09-19T19:03:43;100394.78;;;18.43;61.77
50087;BME280;35967;50.718;7.050;2023-09-19T19:13:51;100397.97;;;18.63;62.39
50087;BME280;35967;50.718;7.050;2023-09-19T19:23:56;100387.34;;;18.37;63.22
50087;BME280;35967;50.718;7.050;2023-09-19T19:34:01;100385.19;;;18.29;64.23
50087;BME280;35967;50.718;7.050;2023-09-19T19:44:07;100390.78;;;18.38;65.40
50087;BME280;35967;50.718;7.050;2023-09-19T19:54:12;100363.78;;;18.39;65.87
50087;BME280;35967;50.718;7.050;2023-09-19T20:04:15;100363.78;;;18.39;66.58
50087;BME280;35967;50.718;7.050;2023-09-19T20:14:21;100362.13;;;18.52;66.26
50087;BME280;35967;50.718;7.050;2023-09-19T20:24:25;100366.16;;;18.58;66.34
50087;BME280;35967;50.718;7.050;2023-09-19T20:34:29;100341.19;;;18.54;66.98
50087;BME280;35967;50.718;7.050;2023-09-19T20:44:33;100338.28;;;18.58;66.42
50087;BME280;35967;50.718;7.050;2023-09-19T20:54:37;100359.06;;;18.60;65.70
50087;BME280;35967;50.718;7.050;2023-09-19T21:04:44;100363.81;;;18.68;66.42
50087;BME280;35967;50.718;7.050;2023-09-19T21:14:49;100361.38;;;18.65;66.28
50087;BME280;35967;50.718;7.050;2023-09-19T21:24:54;100356.00;;;18.68;66.02
50087;BME280;35967;50.718;7.050;2023-09-19T21:35:00;100364.75;;;18.67;66.77
50087;BME280;35967;50.718;7.050;2023-09-19T21:45:04;100355.31;;;18.79;66.83
50087;BME280;35967;50.718;7.050;2023-09-19T21:55:09;100345.19;;;18.74;66.05
50087;BME280;35967;50.718;7.050;2023-09-19T22:05:12;100341.91;;;18.85;66.40
50087;BME280;35967;50.718;7.050;2023-09-19T22:15:17;100332.69;;;18.79;66.79
50087;BME280;35967;50.718;7.050;2023-09-19T22:25:20;100343.50;;;18.73;67.47
50087;BME280;35967;50.718;7.050;2023-09-19T22:35:28;100342.09;;;18.53;67.82
50087;BME280;35967;50.718;7.050;2023-09-19T22:45:32;100338.03;;;18.34;69.20
50087;BME280;35967;50.718;7.050;2023-09-19T22:55:37;100339.94;;;18.16;71.11
50087;BME280;35967;50.718;7.050;2023-09-19T23:05:42;100340.84;;;18.01;71.74
50087;BME280;35967;50.718;7.050;2023-09-19T23:15:48;100336.50;;;18.01;72.13
50087;BME280;35967;50.718;7.050;2023-09-19T23:25:56;100336.78;;;17.95;72.71
50087;BME280;35967;50.718;7.050;2023-09-19T23:36:01;100330.47;;;17.85;73.12
50087;BME280;35967;50.718;7.050;2023-09-19T23:46:05;100324.41;;;17.84;73.22
50087;BME280;35967;50.718;7.050;2023-09-19T23:56:10;100332.56;;;17.78;74.19
